sensor_id;sensor_type;location;lat;lon;timestamp;temperature;humidity
38860;DHT22;24609;48.316;16.174;2023-08-30T00:00:18;14.70;99.90
38860;DHT22;24609;48.316;16.174;2023-08-30T00:02:46;14.70;99.90
38860;DHT22;24609;48.316;16.174;2023-08-30T00:05:13;14.70;99.90
38860;DHT22;24609;48.316;16.174;2023-08-30T00:07:38;14.70;99.90
38860;DHT22;24609;48.316;16.174;2023-08-30T00:10:06;14.70;99.90
38860;DHT22;24609;48.316;16.174;2023-08-30T00:12:32;14.70;99.90
38860;DHT22;24609;48.316;16.174;2023-08-30T00:14:57;14.70;99.90
38860;DHT22;24609;48.316;16.174;2023-08-30T00:17:23;14.70;99.90
38860;DHT22;24609;48.316;16.174;2023-08-30T00:19:49;14.80;99.90
38860;DHT22;24609;48.316;16.174;2023-08-30T00:22:15;14.70;99.90
38860;DHT22;24609;48.316;16.174;2023-08-30T00:24:41;14.80;99.90
38860;DHT22;24609;48.316;16.174;2023-08-30T00:27:06;14.80;99.90
38860;DHT22;24609;48.316;16.174;2023-08-30T00:29:32;14.70;99.90
38860;DHT22;24609;48.316;16.174;2023-08-30T00:31:58;14.80;99.90
38860;DHT22;24609;48.316;16.174;2023-08-30T00:34:23;14.80;99.90
38860;DHT22;24609;48.316;16.174;2023-08-30T00:36:49;14.80;99.90
38860;DHT22;24609;48.316;16.174;2023-08-30T00:39:15;14.80;99.90
38860;DHT22;24609;48.316;16.174;2023-08-30T00:41:40;14.70;99.90
38860;DHT22;24609;48.316;16.174;2023-08-30T00:44:06;14.70;99.90
38860;DHT22;24609;48.316;16.174;2023-08-30T00:46:35;14.70;99.90
38860;DHT22;24609;48.316;16.174;2023-08-30T00:49:02;14.70;99.90
38860;DHT22;24609;48.316;16.174;2023-08-30T00:51:28;14.70;99.90
38860;DHT22;24609;48.316;16.174;2023-08-30T00:53:55;14.70;99.90
38860;DHT22;24609;48.316;16.174;2023-08-30T00:56:21;14.70;99.90
38860;DHT22;24609;48.316;16.174;2023-08-30T00:58:49;14.70;99.90
38860;DHT22;24609;48.316;16.174;2023-08-30T01:01:16;14.70;99.90
38860;DHT22;24609;48.316;16.174;2023-08-30T01:03:42;14.70;99.90
38860;DHT22;24609;48.316;16.174;2023-08-30T01:06:07;14.80;99.90
38860;DHT22;24609;48.316;16.174;2023-08-30T01:08:34;14.80;99.90
38860;DHT22;24609;48.316;16.174;2023-08-30T01:13:50;14.80;99.90
38860;DHT22;24609;48.316;16.174;2023-08-30T01:16:19;14.80;99.90
38860;DHT22;24609;48.316;16.174;2023-08-30T01:18:47;14.80;99.90
38860;DHT22;24609;48.316;16.174;2023-08-30T01:21:47;14.80;99.90
38860;DHT22;24609;48.316;16.174;2023-08-30T01:24:10;14.80;99.90
38860;DHT22;24609;48.316;16.174;2023-08-30T01:26:48;14.80;99.90
38860;DHT22;24609;48.316;16.174;2023-08-30T01:29:17;14.80;99.90
38860;DHT22;24609;48.316;16.174;2023-08-30T01:31:45;14.80;99.90
38860;DHT22;24609;48.316;16.174;2023-08-30T01:34:13;14.80;99.90
38860;DHT22;24609;48.316;16.174;2023-08-30T01:36:41;14.80;99.90
38860;DHT22;24609;48.316;16.174;2023-08-30T01:39:10;14.80;99.90
38860;DHT22;24609;48.316;16.174;2023-08-30T01:41:36;14.80;99.90
38860;DHT22;24609;48.316;16.174;2023-08-30T01:44:04;14.80;99.90
38860;DHT22;24609;48.316;16.174;2023-08-30T01:46:33;14.80;99.90
38860;DHT22;24609;48.316;16.174;2023-08-30T01:49:03;14.80;99.90
38860;DHT22;24609;48.316;16.174;2023-08-30T01:51:29;14.80;99.90
38860;DHT22;24609;48.316;16.174;2023-08-30T01:53:56;14.80;99.90
38860;DHT22;24609;48.316;16.174;2023-08-30T01:56:22;14.80;99.90
38860;DHT22;24609;48.316;16.174;2023-08-30T01:58:48;14.80;99.90
38860;DHT22;24609;48.316;16.174;2023-08-30T02:01:15;14.80;99.90
38860;DHT22;24609;48.316;16.174;2023-08-30T02:03:43;14.80;99.90
38860;DHT22;24609;48.316;16.174;2023-08-30T02:06:13;14.80;99.90
38860;DHT22;24609;48.316;16.174;2023-08-30T02:09:01;14.80;99.90
38860;DHT22;24609;48.316;16.174;2023-08-30T02:11:31;14.80;99.90
38860;DHT22;24609;48.316;16.174;2023-08-30T02:13:58;14.80;99.90
38860;DHT22;24609;48.316;16.174;2023-08-30T02:16:26;14.80;99.90
38860;DHT22;24609;48.316;16.174;2023-08-30T02:18:53;14.80;99.90
38860;DHT22;24609;48.316;16.174;2023-08-30T02:21:19;14.80;99.90
38860;DHT22;24609;48.316;16.174;2023-08-30T02:23:49;14.80;99.90
38860;DHT22;24609;48.316;16.174;2023-08-30T02:26:15;14.80;99.90
38860;DHT22;24609;48.316;16.174;2023-08-30T02:28:41;14.80;99.90
38860;DHT22;24609;48.316;16.174;2023-08-30T02:31:07;14.80;99.90
38860;DHT22;24609;48.316;16.174;2023-08-30T02:33:32;14.80;99.90
38860;DHT22;24609;48.316;16.174;2023-08-30T02:35:58;14.80;99.90
38860;DHT22;24609;48.316;16.174;2023-08-30T02:38:24;14.80;99.90
38860;DHT22;24609;48.316;16.174;2023-08-30T02:40:49;14.80;99.90
38860;DHT22;24609;48.316;16.174;2023-08-30T02:43:15;14.80;99.90
38860;DHT22;24609;48.316;16.174;2023-08-30T02:45:41;14.80;99.90
38860;DHT22;24609;48.316;16.174;2023-08-30T02:48:06;14.80;99.90
38860;DHT22;24609;48.316;16.174;2023-08-30T02:50:32;14.80;99.90
38860;DHT22;24609;48.316;16.174;2023-08-30T02:52:58;14.80;99.90
38860;DHT22;24609;48.316;16.174;2023-08-30T02:55:23;14.70;99.90
38860;DHT22;24609;48.316;16.174;2023-08-30T02:57:49;14.70;99.90
38860;DHT22;24609;48.316;16.174;2023-08-30T03:00:15;14.70;99.90
38860;DHT22;24609;48.316;16.174;2023-08-30T03:02:41;14.70;99.90
38860;DHT22;24609;48.316;16.174;2023-08-30T03:05:07;14.70;99.90
38860;DHT22;24609;48.316;16.174;2023-08-30T03:07:32;14.70;99.90
38860;DHT22;24609;48.316;16.174;2023-08-30T03:09:58;14.70;99.90
38860;DHT22;24609;48.316;16.174;2023-08-30T03:12:24;14.70;99.90
38860;DHT22;24609;48.316;16.174;2023-08-30T03:14:50;14.70;99.90
38860;DHT22;24609;48.316;16.174;2023-08-30T03:17:16;14.70;99.90
38860;DHT22;24609;48.316;16.174;2023-08-30T03:19:42;14.60;99.90
38860;DHT22;24609;48.316;16.174;2023-08-30T03:22:07;14.60;99.90
38860;DHT22;24609;48.316;16.174;2023-08-30T03:24:33;14.60;99.90
38860;DHT22;24609;48.316;16.174;2023-08-30T03:26:59;14.60;99.90
38860;DHT22;24609;48.316;16.174;2023-08-30T03:29:25;14.50;99.90
38860;DHT22;24609;48.316;16.174;2023-08-30T03:31:51;14.50;99.90
38860;DHT22;24609;48.316;16.174;2023-08-30T03:34:16;14.50;99.90
38860;DHT22;24609;48.316;16.174;2023-08-30T03:36:42;14.40;99.90
38860;DHT22;24609;48.316;16.174;2023-08-30T03:39:09;14.40;99.90
38860;DHT22;24609;48.316;16.174;2023-08-30T03:41:35;14.40;99.90
38860;DHT22;24609;48.316;16.174;2023-08-30T03:44:01;14.40;99.90
38860;DHT22;24609;48.316;16.174;2023-08-30T03:46:27;14.30;99.90
38860;DHT22;24609;48.316;16.174;2023-08-30T03:48:52;14.40;99.90
38860;DHT22;24609;48.316;16.174;2023-08-30T03:51:18;14.40;99.90
38860;DHT22;24609;48.316;16.174;2023-08-30T03:53:44;14.40;99.90
38860;DHT22;24609;48.316;16.174;2023-08-30T03:56:09;14.30;99.90
38860;DHT22;24609;48.316;16.174;2023-08-30T03:58:36;14.30;99.90
38860;DHT22;24609;48.316;16.174;2023-08-30T04:01:03;14.30;99.90
38860;DHT22;24609;48.316;16.174;2023-08-30T04:03:28;14.30;99.90
38860;DHT22;24609;48.316;16.174;2023-08-30T04:05:55;14.30;99.90
38860;DHT22;24609;48.316;16.174;2023-08-30T04:08:22;14.30;99.90
38860;DHT22;24609;48.316;16.174;2023-08-30T04:10:47;14.40;99.90
38860;DHT22;24609;48.316;16.174;2023-08-30T04:13:14;14.30;99.90
38860;DHT22;24609;48.316;16.174;2023-08-30T04:15:40;14.40;99.90
38860;DHT22;24609;48.316;16.174;2023-08-30T04:18:06;14.40;99.90
38860;DHT22;24609;48.316;16.174;2023-08-30T04:20:33;14.40;99.90
38860;DHT22;24609;48.316;16.174;2023-08-30T04:22:59;14.40;99.90
38860;DHT22;24609;48.316;16.174;2023-08-30T04:25:27;14.40;99.90
38860;DHT22;24609;48.316;16.174;2023-08-30T04:27:53;14.40;99.90
38860;DHT22;24609;48.316;16.174;2023-08-30T04:30:19;14.40;99.90
38860;DHT22;24609;48.316;16.174;2023-08-30T04:32:45;14.30;99.90
38860;DHT22;24609;48.316;16.174;2023-08-30T04:35:11;14.40;99.90
38860;DHT22;24609;48.316;16.174;2023-08-30T04:37:36;14.40;99.90
38860;DHT22;24609;48.316;16.174;2023-08-30T04:40:05;14.50;99.90
38860;DHT22;24609;48.316;16.174;2023-08-30T04:42:31;14.50;99.90
38860;DHT22;24609;48.316;16.174;2023-08-30T04:44:56;14.50;99.90
38860;DHT22;24609;48.316;16.174;2023-08-30T04:47:26;14.50;99.90
38860;DHT22;24609;48.316;16.174;2023-08-30T04:49:52;14.50;99.90
38860;DHT22;24609;48.316;16.174;2023-08-30T04:52:17;14.50;99.90
38860;DHT22;24609;48.316;16.174;2023-08-30T04:54:43;14.50;99.90
38860;DHT22;24609;48.316;16.174;2023-08-30T04:57:11;14.50;99.90
38860;DHT22;24609;48.316;16.174;2023-08-30T04:59:40;14.50;99.90
38860;DHT22;24609;48.316;16.174;2023-08-30T05:02:06;14.50;99.90
38860;DHT22;24609;48.316;16.174;2023-08-30T05:04:31;14.50;99.90
38860;DHT22;24609;48.316;16.174;2023-08-30T05:06:57;14.50;99.90
38860;DHT22;24609;48.316;16.174;2023-08-30T05:09:23;14.60;99.90
38860;DHT22;24609;48.316;16.174;2023-08-30T05:11:51;14.60;99.90
38860;DHT22;24609;48.316;16.174;2023-08-30T05:14:16;14.60;99.90
38860;DHT22;24609;48.316;16.174;2023-08-30T05:16:42;14.60;99.90
38860;DHT22;24609;48.316;16.174;2023-08-30T05:19:08;14.70;99.90
38860;DHT22;24609;48.316;16.174;2023-08-30T05:21:33;14.80;99.90
38860;DHT22;24609;48.316;16.174;2023-08-30T05:23:59;14.80;99.90
38860;DHT22;24609;48.316;16.174;2023-08-30T05:26:25;14.90;99.90
38860;DHT22;24609;48.316;16.174;2023-08-30T05:28:50;14.90;99.90
38860;DHT22;24609;48.316;16.174;2023-08-30T05:31:16;14.80;99.90
38860;DHT22;24609;48.316;16.174;2023-08-30T05:33:42;14.80;99.90
38860;DHT22;24609;48.316;16.174;2023-08-30T05:36:07;14.80;99.90
38860;DHT22;24609;48.316;16.174;2023-08-30T05:38:33;14.80;99.90
38860;DHT22;24609;48.316;16.174;2023-08-30T05:40:58;14.80;99.90
38860;DHT22;24609;48.316;16.174;2023-08-30T05:43:24;14.90;99.90
38860;DHT22;24609;48.316;16.174;2023-08-30T05:45:50;14.90;99.90
38860;DHT22;24609;48.316;16.174;2023-08-30T05:48:15;14.90;99.90
38860;DHT22;24609;48.316;16.174;2023-08-30T05:50:41;15.10;99.90
38860;DHT22;24609;48.316;16.174;2023-08-30T05:53:07;15.20;99.90
38860;DHT22;24609;48.316;16.174;2023-08-30T05:55:33;15.20;99.90
38860;DHT22;24609;48.316;16.174;2023-08-30T05:57:58;15.20;99.90
38860;DHT22;24609;48.316;16.174;2023-08-30T06:00:24;15.30;99.90
38860;DHT22;24609;48.316;16.174;2023-08-30T06:02:51;15.30;99.90
38860;DHT22;24609;48.316;16.174;2023-08-30T06:05:17;15.40;99.90
38860;DHT22;24609;48.316;16.174;2023-08-30T06:07:43;15.50;99.90
38860;DHT22;24609;48.316;16.174;2023-08-30T06:10:10;15.60;99.90
38860;DHT22;24609;48.316;16.174;2023-08-30T06:12:35;15.60;99.90
38860;DHT22;24609;48.316;16.174;2023-08-30T06:15:01;15.70;99.90
38860;DHT22;24609;48.316;16.174;2023-08-30T06:17:27;15.60;99.90
38860;DHT22;24609;48.316;16.174;2023-08-30T06:19:52;15.70;99.90
38860;DHT22;24609;48.316;16.174;2023-08-30T06:22:18;15.80;99.90
38860;DHT22;24609;48.316;16.174;2023-08-30T06:24:44;16.00;99.90
38860;DHT22;24609;48.316;16.174;2023-08-30T06:27:13;16.10;99.90
38860;DHT22;24609;48.316;16.174;2023-08-30T06:29:38;16.20;99.90
38860;DHT22;24609;48.316;16.174;2023-08-30T06:32:04;16.30;99.90
38860;DHT22;24609;48.316;16.174;2023-08-30T06:34:30;16.30;99.90
38860;DHT22;24609;48.316;16.174;2023-08-30T06:36:56;16.50;99.90
38860;DHT22;24609;48.316;16.174;2023-08-30T06:39:22;16.60;99.90
38860;DHT22;24609;48.316;16.174;2023-08-30T06:41:48;16.70;99.90
38860;DHT22;24609;48.316;16.174;2023-08-30T06:44:13;16.80;99.90
38860;DHT22;24609;48.316;16.174;2023-08-30T06:46:39;16.90;99.90
38860;DHT22;24609;48.316;16.174;2023-08-30T06:49:05;16.70;99.90
38860;DHT22;24609;48.316;16.174;2023-08-30T06:51:31;16.50;99.90
38860;DHT22;24609;48.316;16.174;2023-08-30T06:53:57;16.70;99.90
38860;DHT22;24609;48.316;16.174;2023-08-30T06:56:26;16.80;99.90
38860;DHT22;24609;48.316;16.174;2023-08-30T06:58:52;16.80;99.90
38860;DHT22;24609;48.316;16.174;2023-08-30T07:01:17;16.90;99.90
38860;DHT22;24609;48.316;16.174;2023-08-30T07:03:43;16.90;99.90
38860;DHT22;24609;48.316;16.174;2023-08-30T07:06:09;17.20;99.90
38860;DHT22;24609;48.316;16.174;2023-08-30T07:08:35;17.40;37.00
38860;DHT22;24609;48.316;16.174;2023-08-30T07:11:01;17.70;90.80
38860;DHT22;24609;48.316;16.174;2023-08-30T07:13:27;18.10;1.00
38860;DHT22;24609;48.316;16.174;2023-08-30T07:15:52;18.70;99.90
38860;DHT22;24609;48.316;16.174;2023-08-30T07:18:19;19.00;99.90
38860;DHT22;24609;48.316;16.174;2023-08-30T07:20:44;19.00;1.00
38860;DHT22;24609;48.316;16.174;2023-08-30T07:23:10;19.90;99.90
38860;DHT22;24609;48.316;16.174;2023-08-30T07:25:37;20.80;1.00
38860;DHT22;24609;48.316;16.174;2023-08-30T07:28:04;20.70;99.90
38860;DHT22;24609;48.316;16.174;2023-08-30T07:30:32;20.70;1.00
38860;DHT22;24609;48.316;16.174;2023-08-30T07:33:01;20.50;1.00
38860;DHT22;24609;48.316;16.174;2023-08-30T07:35:26;19.40;99.90
38860;DHT22;24609;48.316;16.174;2023-08-30T07:37:52;19.20;99.90
38860;DHT22;24609;48.316;16.174;2023-08-30T07:40:18;18.60;1.00
38860;DHT22;24609;48.316;16.174;2023-08-30T07:42:44;18.80;31.50
38860;DHT22;24609;48.316;16.174;2023-08-30T07:45:10;18.80;99.90
38860;DHT22;24609;48.316;16.174;2023-08-30T07:47:35;18.90;99.90
38860;DHT22;24609;48.316;16.174;2023-08-30T07:50:01;19.00;99.90
38860;DHT22;24609;48.316;16.174;2023-08-30T07:52:27;18.80;1.00
38860;DHT22;24609;48.316;16.174;2023-08-30T07:54:54;19.10;99.90
38860;DHT22;24609;48.316;16.174;2023-08-30T07:57:19;18.90;1.00
38860;DHT22;24609;48.316;16.174;2023-08-30T07:59:45;19.20;99.90
38860;DHT22;24609;48.316;16.174;2023-08-30T08:02:10;18.90;99.90
38860;DHT22;24609;48.316;16.174;2023-08-30T08:04:36;19.80;1.00
38860;DHT22;24609;48.316;16.174;2023-08-30T08:07:02;20.20;1.00
38860;DHT22;24609;48.316;16.174;2023-08-30T08:09:28;19.90;78.80
38860;DHT22;24609;48.316;16.174;2023-08-30T08:11:55;19.20;1.00
38860;DHT22;24609;48.316;16.174;2023-08-30T08:14:25;19.80;1.00
38860;DHT22;24609;48.316;16.174;2023-08-30T08:16:50;20.30;99.90
38860;DHT22;24609;48.316;16.174;2023-08-30T08:19:16;20.70;99.90
38860;DHT22;24609;48.316;16.174;2023-08-30T08:21:42;20.60;99.90
38860;DHT22;24609;48.316;16.174;2023-08-30T08:24:07;20.30;99.90
38860;DHT22;24609;48.316;16.174;2023-08-30T08:26:33;20.20;99.90
38860;DHT22;24609;48.316;16.174;2023-08-30T08:28:59;19.80;99.90
38860;DHT22;24609;48.316;16.174;2023-08-30T08:31:25;20.60;99.90
38860;DHT22;24609;48.316;16.174;2023-08-30T08:34:11;21.30;99.90
38860;DHT22;24609;48.316;16.174;2023-08-30T08:36:38;20.90;99.90
38860;DHT22;24609;48.316;16.174;2023-08-30T08:39:04;21.40;99.90
38860;DHT22;24609;48.316;16.174;2023-08-30T08:41:39;21.00;99.90
38860;DHT22;24609;48.316;16.174;2023-08-30T08:44:07;20.90;99.90
38860;DHT22;24609;48.316;16.174;2023-08-30T08:46:43;21.20;99.90
38860;DHT22;24609;48.316;16.174;2023-08-30T08:49:12;21.40;99.90
38860;DHT22;24609;48.316;16.174;2023-08-30T08:51:42;21.70;99.90
38860;DHT22;24609;48.316;16.174;2023-08-30T08:54:09;21.80;99.90
38860;DHT22;24609;48.316;16.174;2023-08-30T08:56:35;22.00;99.90
38860;DHT22;24609;48.316;16.174;2023-08-30T08:59:01;21.80;99.90
38860;DHT22;24609;48.316;16.174;2023-08-30T09:01:27;21.40;99.90
38860;DHT22;24609;48.316;16.174;2023-08-30T09:03:53;21.40;99.90
38860;DHT22;24609;48.316;16.174;2023-08-30T09:06:21;21.20;99.90
38860;DHT22;24609;48.316;16.174;2023-08-30T09:08:47;21.40;99.90
38860;DHT22;24609;48.316;16.174;2023-08-30T09:11:13;21.40;99.90
38860;DHT22;24609;48.316;16.174;2023-08-30T09:13:39;21.20;99.90
38860;DHT22;24609;48.316;16.174;2023-08-30T09:16:14;20.80;99.90
38860;DHT22;24609;48.316;16.174;2023-08-30T09:18:43;20.60;99.90
38860;DHT22;24609;48.316;16.174;2023-08-30T09:21:09;20.20;99.90
38860;DHT22;24609;48.316;16.174;2023-08-30T09:23:35;20.00;99.90
38860;DHT22;24609;48.316;16.174;2023-08-30T09:26:01;20.10;99.90
38860;DHT22;24609;48.316;16.174;2023-08-30T09:28:30;20.00;99.90
38860;DHT22;24609;48.316;16.174;2023-08-30T09:30:58;20.20;99.90
38860;DHT22;24609;48.316;16.174;2023-08-30T09:33:32;20.40;99.90
38860;DHT22;24609;48.316;16.174;2023-08-30T09:35:58;20.90;99.90
38860;DHT22;24609;48.316;16.174;2023-08-30T09:38:25;21.50;99.90
38860;DHT22;24609;48.316;16.174;2023-08-30T09:40:51;22.20;99.90
38860;DHT22;24609;48.316;16.174;2023-08-30T09:43:20;22.40;99.90
38860;DHT22;24609;48.316;16.174;2023-08-30T09:45:52;22.30;99.90
38860;DHT22;24609;48.316;16.174;2023-08-30T09:48:28;22.00;99.90
38860;DHT22;24609;48.316;16.174;2023-08-30T09:50:54;21.90;99.60
38860;DHT22;24609;48.316;16.174;2023-08-30T09:53:25;21.70;99.90
38860;DHT22;24609;48.316;16.174;2023-08-30T09:55:54;21.40;99.90
38860;DHT22;24609;48.316;16.174;2023-08-30T09:58:21;21.50;99.90
38860;DHT22;24609;48.316;16.174;2023-08-30T10:00:48;20.80;99.90
38860;DHT22;24609;48.316;16.174;2023-08-30T10:03:15;20.80;99.90
38860;DHT22;24609;48.316;16.174;2023-08-30T10:05:45;20.70;99.90
38860;DHT22;24609;48.316;16.174;2023-08-30T10:08:12;20.10;99.90
38860;DHT22;24609;48.316;16.174;2023-08-30T10:10:39;20.40;99.90
38860;DHT22;24609;48.316;16.174;2023-08-30T10:13:05;20.40;99.90
38860;DHT22;24609;48.316;16.174;2023-08-30T10:15:36;20.50;99.90
38860;DHT22;24609;48.316;16.174;2023-08-30T10:18:06;20.90;99.90
38860;DHT22;24609;48.316;16.174;2023-08-30T10:20:33;21.40;99.90
38860;DHT22;24609;48.316;16.174;2023-08-30T10:22:59;21.10;99.90
38860;DHT22;24609;48.316;16.174;2023-08-30T10:25:29;21.30;99.90
38860;DHT22;24609;48.316;16.174;2023-08-30T10:27:56;21.40;99.90
38860;DHT22;24609;48.316;16.174;2023-08-30T10:30:22;21.60;99.90
38860;DHT22;24609;48.316;16.174;2023-08-30T10:32:48;21.10;99.90
38860;DHT22;24609;48.316;16.174;2023-08-30T10:35:15;21.10;99.90
38860;DHT22;24609;48.316;16.174;2023-08-30T10:37:42;21.00;99.90
38860;DHT22;24609;48.316;16.174;2023-08-30T10:40:08;20.90;99.90
38860;DHT22;24609;48.316;16.174;2023-08-30T10:42:35;20.50;99.90
38860;DHT22;24609;48.316;16.174;2023-08-30T10:45:04;20.80;99.90
38860;DHT22;24609;48.316;16.174;2023-08-30T10:47:32;21.20;99.90
38860;DHT22;24609;48.316;16.174;2023-08-30T10:50:04;21.40;99.90
38860;DHT22;24609;48.316;16.174;2023-08-30T10:52:30;21.80;99.90
38860;DHT22;24609;48.316;16.174;2023-08-30T10:55:10;22.40;98.80
38860;DHT22;24609;48.316;16.174;2023-08-30T10:57:37;22.70;98.50
38860;DHT22;24609;48.316;16.174;2023-08-30T11:02:45;22.90;96.90
38860;DHT22;24609;48.316;16.174;2023-08-30T11:05:12;22.90;96.00
38860;DHT22;24609;48.316;16.174;2023-08-30T11:07:37;23.00;95.40
38860;DHT22;24609;48.316;16.174;2023-08-30T11:10:06;22.90;95.50
38860;DHT22;24609;48.316;16.174;2023-08-30T11:12:32;22.60;96.30
38860;DHT22;24609;48.316;16.174;2023-08-30T11:14:58;22.70;96.70
38860;DHT22;24609;48.316;16.174;2023-08-30T11:17:25;23.00;96.40
38860;DHT22;24609;48.316;16.174;2023-08-30T11:19:56;23.10;96.10
38860;DHT22;24609;48.316;16.174;2023-08-30T11:22:23;24.00;94.70
38860;DHT22;24609;48.316;16.174;2023-08-30T11:24:49;24.80;90.70
38860;DHT22;24609;48.316;16.174;2023-08-30T11:27:19;26.00;84.50
38860;DHT22;24609;48.316;16.174;2023-08-30T11:29:44;25.10;79.70
38860;DHT22;24609;48.316;16.174;2023-08-30T11:32:10;25.50;80.80
38860;DHT22;24609;48.316;16.174;2023-08-30T11:34:38;25.30;79.70
38860;DHT22;24609;48.316;16.174;2023-08-30T11:37:04;27.10;73.50
38860;DHT22;24609;48.316;16.174;2023-08-30T11:39:30;29.50;61.90
38860;DHT22;24609;48.316;16.174;2023-08-30T11:41:59;31.50;52.90
38860;DHT22;24609;48.316;16.174;2023-08-30T11:44:28;30.20;50.50
38860;DHT22;24609;48.316;16.174;2023-08-30T11:46:58;29.70;49.60
38860;DHT22;24609;48.316;16.174;2023-08-30T11:49:24;28.20;48.50
38860;DHT22;24609;48.316;16.174;2023-08-30T11:51:50;26.40;51.30
38860;DHT22;24609;48.316;16.174;2023-08-30T11:54:19;26.10;54.10
38860;DHT22;24609;48.316;16.174;2023-08-30T11:56:46;26.30;55.60
38860;DHT22;24609;48.316;16.174;2023-08-30T11:59:21;28.10;54.30
38860;DHT22;24609;48.316;16.174;2023-08-30T12:01:48;29.60;51.50
38860;DHT22;24609;48.316;16.174;2023-08-30T12:04:14;33.90;44.60
38860;DHT22;24609;48.316;16.174;2023-08-30T12:06:40;35.30;33.40
38860;DHT22;24609;48.316;16.174;2023-08-30T12:09:12;36.60;29.20
38860;DHT22;24609;48.316;16.174;2023-08-30T12:11:37;38.00;25.60
38860;DHT22;24609;48.316;16.174;2023-08-30T12:14:03;38.20;22.80
38860;DHT22;24609;48.316;16.174;2023-08-30T12:16:29;37.80;22.40
38860;DHT22;24609;48.316;16.174;2023-08-30T12:18:54;37.80;21.40
38860;DHT22;24609;48.316;16.174;2023-08-30T12:21:20;34.30;23.10
38860;DHT22;24609;48.316;16.174;2023-08-30T12:23:46;34.00;24.20
38860;DHT22;24609;48.316;16.174;2023-08-30T12:26:12;32.60;25.90
38860;DHT22;24609;48.316;16.174;2023-08-30T12:28:39;30.50;28.50
38860;DHT22;24609;48.316;16.174;2023-08-30T12:31:06;29.40;30.30
38860;DHT22;24609;48.316;16.174;2023-08-30T12:33:34;28.60;31.50
38860;DHT22;24609;48.316;16.174;2023-08-30T12:36:01;27.60;33.90
38860;DHT22;24609;48.316;16.174;2023-08-30T12:38:27;26.90;36.40
38860;DHT22;24609;48.316;16.174;2023-08-30T12:40:54;26.20;38.00
38860;DHT22;24609;48.316;16.174;2023-08-30T12:43:21;26.10;39.40
38860;DHT22;24609;48.316;16.174;2023-08-30T12:45:48;26.20;39.20
38860;DHT22;24609;48.316;16.174;2023-08-30T12:48:15;26.30;39.70
38860;DHT22;24609;48.316;16.174;2023-08-30T12:50:42;26.40;39.40
38860;DHT22;24609;48.316;16.174;2023-08-30T12:53:09;25.90;39.60
38860;DHT22;24609;48.316;16.174;2023-08-30T12:55:35;24.80;42.50
38860;DHT22;24609;48.316;16.174;2023-08-30T12:58:01;23.60;43.90
38860;DHT22;24609;48.316;16.174;2023-08-30T13:00:28;23.80;47.50
38860;DHT22;24609;48.316;16.174;2023-08-30T13:02:53;23.90;48.20
38860;DHT22;24609;48.316;16.174;2023-08-30T13:05:19;23.80;49.00
38860;DHT22;24609;48.316;16.174;2023-08-30T13:07:46;24.00;48.50
38860;DHT22;24609;48.316;16.174;2023-08-30T13:10:12;24.30;47.20
38860;DHT22;24609;48.316;16.174;2023-08-30T13:12:38;24.60;48.10
38860;DHT22;24609;48.316;16.174;2023-08-30T13:15:04;24.60;46.70
38860;DHT22;24609;48.316;16.174;2023-08-30T13:17:30;25.20;46.50
38860;DHT22;24609;48.316;16.174;2023-08-30T13:19:56;24.60;47.90
38860;DHT22;24609;48.316;16.174;2023-08-30T13:22:25;24.30;49.00
38860;DHT22;24609;48.316;16.174;2023-08-30T13:24:51;24.40;49.80
38860;DHT22;24609;48.316;16.174;2023-08-30T13:27:18;25.00;48.70
38860;DHT22;24609;48.316;16.174;2023-08-30T13:29:43;25.20;48.90
38860;DHT22;24609;48.316;16.174;2023-08-30T13:32:09;24.60;47.80
38860;DHT22;24609;48.316;16.174;2023-08-30T13:34:35;24.00;49.00
38860;DHT22;24609;48.316;16.174;2023-08-30T13:37:00;23.60;50.00
38860;DHT22;24609;48.316;16.174;2023-08-30T13:39:26;23.30;51.10
38860;DHT22;24609;48.316;16.174;2023-08-30T13:41:52;22.70;51.20
38860;DHT22;24609;48.316;16.174;2023-08-30T13:44:17;22.60;52.60
38860;DHT22;24609;48.316;16.174;2023-08-30T13:46:44;22.50;53.70
38860;DHT22;24609;48.316;16.174;2023-08-30T13:49:10;22.40;54.20
38860;DHT22;24609;48.316;16.174;2023-08-30T13:51:35;22.80;54.70
38860;DHT22;24609;48.316;16.174;2023-08-30T13:54:02;22.50;54.50
38860;DHT22;24609;48.316;16.174;2023-08-30T13:56:28;22.60;55.30
38860;DHT22;24609;48.316;16.174;2023-08-30T13:58:56;22.70;55.30
38860;DHT22;24609;48.316;16.174;2023-08-30T14:01:21;23.00;55.90
38860;DHT22;24609;48.316;16.174;2023-08-30T14:03:47;23.40;54.40
38860;DHT22;24609;48.316;16.174;2023-08-30T14:06:13;25.00;53.10
38860;DHT22;24609;48.316;16.174;2023-08-30T14:08:38;25.60;50.50
38860;DHT22;24609;48.316;16.174;2023-08-30T14:11:04;26.30;48.80
38860;DHT22;24609;48.316;16.174;2023-08-30T14:13:30;25.90;47.50
38860;DHT22;24609;48.316;16.174;2023-08-30T14:16:01;25.20;49.50
38860;DHT22;24609;48.316;16.174;2023-08-30T14:18:28;25.40;50.60
38860;DHT22;24609;48.316;16.174;2023-08-30T14:20:58;25.10;50.20
38860;DHT22;24609;48.316;16.174;2023-08-30T14:23:28;24.50;49.70
38860;DHT22;24609;48.316;16.174;2023-08-30T14:25:58;24.30;52.10
38860;DHT22;24609;48.316;16.174;2023-08-30T14:28:25;23.70;52.30
38860;DHT22;24609;48.316;16.174;2023-08-30T14:30:51;23.20;53.60
38860;DHT22;24609;48.316;16.174;2023-08-30T14:33:17;23.00;55.20
38860;DHT22;24609;48.316;16.174;2023-08-30T14:35:43;22.20;64.20
38860;DHT22;24609;48.316;16.174;2023-08-30T14:38:09;21.90;84.60
38860;DHT22;24609;48.316;16.174;2023-08-30T14:40:35;21.50;83.70
38860;DHT22;24609;48.316;16.174;2023-08-30T14:43:03;21.30;94.20
38860;DHT22;24609;48.316;16.174;2023-08-30T14:45:29;21.10;94.70
38860;DHT22;24609;48.316;16.174;2023-08-30T14:47:54;21.20;95.40
38860;DHT22;24609;48.316;16.174;2023-08-30T14:50:20;21.10;95.90
38860;DHT22;24609;48.316;16.174;2023-08-30T14:52:46;21.50;96.10
38860;DHT22;24609;48.316;16.174;2023-08-30T14:55:12;21.40;93.30
38860;DHT22;24609;48.316;16.174;2023-08-30T14:57:37;21.40;92.10
38860;DHT22;24609;48.316;16.174;2023-08-30T15:00:04;21.30;92.20
38860;DHT22;24609;48.316;16.174;2023-08-30T15:02:30;21.30;92.40
38860;DHT22;24609;48.316;16.174;2023-08-30T15:04:56;21.40;91.80
38860;DHT22;24609;48.316;16.174;2023-08-30T15:07:22;21.70;92.30
38860;DHT22;24609;48.316;16.174;2023-08-30T15:09:48;21.90;93.60
38860;DHT22;24609;48.316;16.174;2023-08-30T15:12:15;21.90;92.80
38860;DHT22;24609;48.316;16.174;2023-08-30T15:14:41;21.50;92.10
38860;DHT22;24609;48.316;16.174;2023-08-30T15:17:08;21.90;91.90
38860;DHT22;24609;48.316;16.174;2023-08-30T15:19:35;22.00;91.40